sensor_id;sensor_type;location;lat;lon;timestamp;pressure;altitude;pressure_sealevel;temperature;humidity
44531;BME280;30240;47.418;0.700;2023-02-08T00:00:49;102244.1162109375;;;1.48;86.69
44531;BME280;30240;47.418;0.700;2023-02-08T00:03:14;102236.07788085938;;;1.4;86.86
44531;BME280;30240;47.418;0.700;2023-02-08T00:05:39;102236.07788085938;;;1.4;86.86
44531;BME280;30240;47.418;0.700;2023-02-08T00:08:04;102241.11938476562;;;1.42;86.82
44531;BME280;30240;47.418;0.700;2023-02-08T00:10:29;102244.677734375;;;1.36;86.9
44531;BME280;30240;47.418;0.700;2023-02-08T00:12:54;102234.3017578125;;;1.28;87.1
44531;BME280;30240;47.418;0.700;2023-02-08T00:15:19;102236.62719726562;;;1.25;87.19
44531;BME280;30240;47.418;0.700;2023-02-08T00:17:44;102241.57104492188;;;1.18;87.41
44531;BME280;30240;47.418;0.700;2023-02-08T00:20:09;102241.57104492188;;;1.18;87.41
44531;BME280;30240;47.418;0.700;2023-02-08T00:22:33;102240.673828125;;;1.18;87.6
44531;BME280;30240;47.418;0.700;2023-02-08T00:24:59;102241.63818359375;;;1.2;87.52
44531;BME280;30240;47.418;0.700;2023-02-08T00:27:23;102241.1376953125;;;1.17;87.48
44531;BME280;30240;47.418;0.700;2023-02-08T00:29:48;102238.37280273438;;;1.08;87.76
44531;BME280;30240;47.418;0.700;2023-02-08T00:32:13;102238.37280273438;;;1.08;87.76
44531;BME280;30240;47.418;0.700;2023-02-08T00:34:39;102235.8154296875;;;1.08;87.93
44531;BME280;30240;47.418;0.700;2023-02-08T00:37:04;102233.26416015625;;;1.03;87.84
44531;BME280;30240;47.418;0.700;2023-02-08T00:39:28;102232.8857421875;;;1.05;87.98
44531;BME280;30240;47.418;0.700;2023-02-08T00:41:54;102228.48510742188;;;1.05;87.95
44531;BME280;30240;47.418;0.700;2023-02-08T00:44:19;102228.48510742188;;;1.05;87.95
44531;BME280;30240;47.418;0.700;2023-02-08T00:46:43;102232.373046875;;;0.98;87.94
44531;BME280;30240;47.418;0.700;2023-02-08T00:49:10;102222.32666015625;;;0.97;87.91
44531;BME280;30240;47.418;0.700;2023-02-08T00:51:34;102227.57568359375;;;0.97;88.07
44531;BME280;30240;47.418;0.700;2023-02-08T00:53:59;102222.76000976562;;;0.93;88.0
44531;BME280;30240;47.418;0.700;2023-02-08T00:56:24;102222.76000976562;;;0.93;88.0
44531;BME280;30240;47.418;0.700;2023-02-08T00:58:49;102222.35717773438;;;0.97;87.88
44531;BME280;30240;47.418;0.700;2023-02-08T01:01:14;102216.1376953125;;;1.01;87.65
44531;BME280;30240;47.418;0.700;2023-02-08T01:03:40;102213.1103515625;;;1.01;87.46
44531;BME280;30240;47.418;0.700;2023-02-08T01:06:06;102210.23559570312;;;1.03;87.41
44531;BME280;30240;47.418;0.700;2023-02-08T01:08:29;102210.23559570312;;;1.03;87.41
44531;BME280;30240;47.418;0.700;2023-02-08T01:11:03;102217.58422851562;;;0.98;87.35
44531;BME280;30240;47.418;0.700;2023-02-08T01:13:19;102213.0615234375;;;0.98;87.3
44531;BME280;30240;47.418;0.700;2023-02-08T01:15:44;102215.65551757812;;;0.97;87.24
44531;BME280;30240;47.418;0.700;2023-02-08T01:18:09;102218.8720703125;;;0.94;87.39
44531;BME280;30240;47.418;0.700;2023-02-08T01:20:34;102218.8720703125;;;0.94;87.39
44531;BME280;30240;47.418;0.700;2023-02-08T01:22:59;102210.43701171875;;;0.94;87.29
44531;BME280;30240;47.418;0.700;2023-02-08T01:25:24;102208.68530273438;;;0.93;87.29
44531;BME280;30240;47.418;0.700;2023-02-08T01:27:49;102210.40649414062;;;0.9;87.27
44531;BME280;30240;47.418;0.700;2023-02-08T01:30:14;102208.4716796875;;;0.91;87.25
44531;BME280;30240;47.418;0.700;2023-02-08T01:32:38;102208.4716796875;;;0.91;87.25
44531;BME280;30240;47.418;0.700;2023-02-08T01:35:04;102203.81469726562;;;0.87;87.17
44531;BME280;30240;47.418;0.700;2023-02-08T01:37:29;102198.90747070312;;;0.93;87.12
44531;BME280;30240;47.418;0.700;2023-02-08T01:39:54;102199.70092773438;;;0.93;87.02
44531;BME280;30240;47.418;0.700;2023-02-08T01:42:19;102198.9501953125;;;0.96;86.84
44531;BME280;30240;47.418;0.700;2023-02-08T01:45:22;102197.3388671875;;;1.01;86.6
44531;BME280;30240;47.418;0.700;2023-02-08T01:47:09;102197.3388671875;;;1.01;86.6
44531;BME280;30240;47.418;0.700;2023-02-08T01:49:35;102196.533203125;;;0.97;86.61
44531;BME280;30240;47.418;0.700;2023-02-08T01:52:01;102198.24829101562;;;0.98;86.44
44531;BME280;30240;47.418;0.700;2023-02-08T01:54:27;102196.37451171875;;;0.9;86.68
44531;BME280;30240;47.418;0.700;2023-02-08T01:56:49;102194.06127929688;;;0.91;86.66
44531;BME280;30240;47.418;0.700;2023-02-08T01:59:17;102194.06127929688;;;0.91;86.66
44531;BME280;30240;47.418;0.700;2023-02-08T02:01:40;102190.8447265625;;;0.94;86.71
44531;BME280;30240;47.418;0.700;2023-02-08T02:04:04;102196.67358398438;;;0.9;86.78
44531;BME280;30240;47.418;0.700;2023-02-08T02:06:32;102194.61059570312;;;0.87;86.75
44531;BME280;30240;47.418;0.700;2023-02-08T02:08:57;102193.12744140625;;;0.8;86.84
44531;BME280;30240;47.418;0.700;2023-02-08T02:11:19;102193.12744140625;;;0.8;86.84
44531;BME280;30240;47.418;0.700;2023-02-08T02:13:44;102192.34619140625;;;0.79;86.93
44531;BME280;30240;47.418;0.700;2023-02-08T02:16:09;102194.90356445312;;;0.91;86.63
44531;BME280;30240;47.418;0.700;2023-02-08T02:18:34;102195.39794921875;;;0.89;86.82
44531;BME280;30240;47.418;0.700;2023-02-08T02:21:31;102192.15698242188;;;0.84;86.88
44531;BME280;30240;47.418;0.700;2023-02-08T02:23:34;102192.15698242188;;;0.84;86.88
44531;BME280;30240;47.418;0.700;2023-02-08T02:23:45;102192.15698242188;;;0.84;86.88
44531;BME280;30240;47.418;0.700;2023-02-08T02:23:57;102192.15698242188;;;0.84;86.88
44531;BME280;30240;47.418;0.700;2023-02-08T02:26:10;102186.8896484375;;;0.8;86.85
44531;BME280;30240;47.418;0.700;2023-02-08T02:28:25;102182.89184570312;;;0.75;87.05
44531;BME280;30240;47.418;0.700;2023-02-08T02:28:38;102182.89184570312;;;0.75;87.05
44531;BME280;30240;47.418;0.700;2023-02-08T02:28:52;102182.89184570312;;;0.75;87.05
44531;BME280;30240;47.418;0.700;2023-02-08T02:30:50;102175.70190429688;;;0.73;87.14
44531;BME280;30240;47.418;0.700;2023-02-08T02:33:10;102173.1689453125;;;0.76;86.98
44531;BME280;30240;47.418;0.700;2023-02-08T02:35:40;102173.1689453125;;;0.76;86.98
44531;BME280;30240;47.418;0.700;2023-02-08T02:37:59;102170.59326171875;;;0.72;87.04
44531;BME280;30240;47.418;0.700;2023-02-08T02:38:07;102170.59326171875;;;0.72;87.04
44531;BME280;30240;47.418;0.700;2023-02-08T02:40:22;102170.12329101562;;;0.68;87.24
44531;BME280;30240;47.418;0.700;2023-02-08T02:42:51;102167.85888671875;;;0.69;87.14
44531;BME280;30240;47.418;0.700;2023-02-08T02:45:14;102174.8779296875;;;0.7;87.11
44531;BME280;30240;47.418;0.700;2023-02-08T02:45:19;102174.8779296875;;;0.7;87.11
44531;BME280;30240;47.418;0.700;2023-02-08T02:45:23;102174.8779296875;;;0.7;87.11
44531;BME280;30240;47.418;0.700;2023-02-08T02:47:38;102174.8779296875;;;0.7;87.11
44531;BME280;30240;47.418;0.700;2023-02-08T02:50:03;102178.37524414062;;;0.63;86.89
44531;BME280;30240;47.418;0.700;2023-02-08T02:52:26;102176.904296875;;;0.61;86.99
44531;BME280;30240;47.418;0.700;2023-02-08T02:54:51;102179.052734375;;;0.63;87.12
44531;BME280;30240;47.418;0.700;2023-02-08T02:57:16;102172.265625;;;0.61;87.15
44531;BME280;30240;47.418;0.700;2023-02-08T02:59:39;102172.265625;;;0.61;87.15
44531;BME280;30240;47.418;0.700;2023-02-08T03:02:04;102172.6318359375;;;0.58;87.2
44531;BME280;30240;47.418;0.700;2023-02-08T03:04:47;102174.93896484375;;;0.58;87.3
44531;BME280;30240;47.418;0.700;2023-02-08T03:07:01;102172.412109375;;;0.55;87.25
44531;BME280;30240;47.418;0.700;2023-02-08T03:09:28;102166.21704101562;;;0.55;87.34
44531;BME280;30240;47.418;0.700;2023-02-08T03:09:35;102166.21704101562;;;0.55;87.34
44531;BME280;30240;47.418;0.700;2023-02-08T03:11:48;102166.21704101562;;;0.55;87.34
44531;BME280;30240;47.418;0.700;2023-02-08T03:14:27;102167.18139648438;;;0.48;87.6
44531;BME280;30240;47.418;0.700;2023-02-08T03:16:41;102164.013671875;;;0.52;87.43
44531;BME280;30240;47.418;0.700;2023-02-08T03:16:51;102164.013671875;;;0.52;87.43
44531;BME280;30240;47.418;0.700;2023-02-08T03:19:05;102156.21337890625;;;0.47;87.5
44531;BME280;30240;47.418;0.700;2023-02-08T03:21:36;102156.21948242188;;;0.44;87.49
44531;BME280;30240;47.418;0.700;2023-02-08T03:23:58;102154.62646484375;;;0.44;87.5
44531;BME280;30240;47.418;0.700;2023-02-08T03:26:18;102154.62646484375;;;0.44;87.5
44531;BME280;30240;47.418;0.700;2023-02-08T03:28:42;102156.75048828125;;;0.47;87.31
44531;BME280;30240;47.418;0.700;2023-02-08T03:28:47;102156.75048828125;;;0.47;87.31
44531;BME280;30240;47.418;0.700;2023-02-08T03:31:08;102149.32861328125;;;0.47;87.37
44531;BME280;30240;47.418;0.700;2023-02-08T03:33:31;102147.7783203125;;;0.4;87.41
44531;BME280;30240;47.418;0.700;2023-02-08T03:35:57;102136.77368164062;;;0.37;87.55
44531;BME280;30240;47.418;0.700;2023-02-08T03:38:22;102136.77368164062;;;0.37;87.55
44531;BME280;30240;47.418;0.700;2023-02-08T03:40:46;102142.88330078125;;;0.38;87.52
44531;BME280;30240;47.418;0.700;2023-02-08T03:43:11;102138.56201171875;;;0.32;87.77
44531;BME280;30240;47.418;0.700;2023-02-08T03:45:37;102137.65869140625;;;0.38;87.46
44531;BME280;30240;47.418;0.700;2023-02-08T03:48:02;102136.09619140625;;;0.4;87.46
44531;BME280;30240;47.418;0.700;2023-02-08T03:50:24;102136.09619140625;;;0.4;87.46
44531;BME280;30240;47.418;0.700;2023-02-08T03:52:49;102139.6240234375;;;0.37;87.43
44531;BME280;30240;47.418;0.700;2023-02-08T03:55:17;102135.56518554688;;;0.32;87.38
44531;BME280;30240;47.418;0.700;2023-02-08T03:57:43;102136.34643554688;;;0.3;87.6
44531;BME280;30240;47.418;0.700;2023-02-08T04:00:06;102136.52954101562;;;0.24;87.57
44531;BME280;30240;47.418;0.700;2023-02-08T04:02:32;102136.52954101562;;;0.24;87.57
44531;BME280;30240;47.418;0.700;2023-02-08T04:04:54;102131.09130859375;;;0.23;87.84
44531;BME280;30240;47.418;0.700;2023-02-08T04:07:19;102136.22436523438;;;0.2;87.8
44531;BME280;30240;47.418;0.700;2023-02-08T04:09:44;102133.43505859375;;;0.21;87.73
44531;BME280;30240;47.418;0.700;2023-02-08T04:12:09;102133.00170898438;;;0.17;87.77
44531;BME280;30240;47.418;0.700;2023-02-08T04:14:34;102133.00170898438;;;0.17;87.77
44531;BME280;30240;47.418;0.700;2023-02-08T04:16:59;102131.93969726562;;;0.18;87.69
44531;BME280;30240;47.418;0.700;2023-02-08T04:19:23;102127.11181640625;;;0.32;87.2
44531;BME280;30240;47.418;0.700;2023-02-08T04:21:48;102122.35717773438;;;0.32;87.13
44531;BME280;30240;47.418;0.700;2023-02-08T04:24:13;102117.724609375;;;0.38;87.22
44531;BME280;30240;47.418;0.700;2023-02-08T04:26:39;102117.724609375;;;0.38;87.22
44531;BME280;30240;47.418;0.700;2023-02-08T04:29:04;102119.47631835938;;;0.45;86.85
44531;BME280;30240;47.418;0.700;2023-02-08T04:31:28;102125.72021484375;;;0.34;87.22
44531;BME280;30240;47.418;0.700;2023-02-08T04:33:53;102118.75610351562;;;0.31;87.12
44531;BME280;30240;47.418;0.700;2023-02-08T04:36:18;102117.15698242188;;;0.27;87.05
44531;BME280;30240;47.418;0.700;2023-02-08T04:38:44;102117.15698242188;;;0.27;87.05
44531;BME280;30240;47.418;0.700;2023-02-08T04:41:09;102115.15502929688;;;0.14;87.65
44531;BME280;30240;47.418;0.700;2023-02-08T04:43:33;102113.47045898438;;;0.09;87.71
44531;BME280;30240;47.418;0.700;2023-02-08T04:45:59;102123.02856445312;;;0.07;88.12
44531;BME280;30240;47.418;0.700;2023-02-08T04:48:24;102118.59130859375;;;0.07;87.78
44531;BME280;30240;47.418;0.700;2023-02-08T04:50:48;102118.51806640625;;;0.11;87.8
44531;BME280;30240;47.418;0.700;2023-02-08T04:53:13;102118.51806640625;;;0.11;87.8
44531;BME280;30240;47.418;0.700;2023-02-08T04:55:39;102117.66357421875;;;0.1;87.77
44531;BME280;30240;47.418;0.700;2023-02-08T04:58:04;102115.64331054688;;;0.13;87.66
44531;BME280;30240;47.418;0.700;2023-02-08T05:00:29;102112.59155273438;;;0.05;87.54
44531;BME280;30240;47.418;0.700;2023-02-08T05:02:54;102111.328125;;;-0.04;87.98
44531;BME280;30240;47.418;0.700;2023-02-08T05:05:19;102111.328125;;;-0.04;87.98
44531;BME280;30240;47.418;0.700;2023-02-08T05:07:44;102108.36181640625;;;-0.04;88.09
44531;BME280;30240;47.418;0.700;2023-02-08T05:10:08;102108.8623046875;;;-0.03;88.09
44531;BME280;30240;47.418;0.700;2023-02-08T05:12:33;102104.9560546875;;;-0.04;88.16
44531;BME280;30240;47.418;0.700;2023-02-08T05:14:59;102104.63256835938;;;-0.03;88.15
44531;BME280;30240;47.418;0.700;2023-02-08T05:17:23;102104.63256835938;;;-0.03;88.15
44531;BME280;30240;47.418;0.700;2023-02-08T05:19:48;102106.94580078125;;;-0.12;88.26
44531;BME280;30240;47.418;0.700;2023-02-08T05:22:13;102111.02905273438;;;-0.07;88.09
44531;BME280;30240;47.418;0.700;2023-02-08T05:24:38;102101.37329101562;;;-0.17;88.28
44531;BME280;30240;47.418;0.700;2023-02-08T05:27:03;102098.5595703125;;;-0.17;88.51
44531;BME280;30240;47.418;0.700;2023-02-08T05:29:28;102098.5595703125;;;-0.17;88.51
44531;BME280;30240;47.418;0.700;2023-02-08T05:31:53;102102.294921875;;;-0.15;88.44
44531;BME280;30240;47.418;0.700;2023-02-08T05:34:18;102104.93774414062;;;-0.11;88.48
44531;BME280;30240;47.418;0.700;2023-02-08T05:36:43;102110.2783203125;;;-0.15;88.45
44531;BME280;30240;47.418;0.700;2023-02-08T05:39:09;102116.12548828125;;;-0.19;88.52
44531;BME280;30240;47.418;0.700;2023-02-08T05:41:33;102116.12548828125;;;-0.19;88.52
44531;BME280;30240;47.418;0.700;2023-02-08T05:43:58;102115.39916992188;;;-0.21;88.63
44531;BME280;30240;47.418;0.700;2023-02-08T05:46:23;102121.11206054688;;;-0.19;88.76
44531;BME280;30240;47.418;0.700;2023-02-08T05:48:48;102125.5126953125;;;-0.17;88.52
44531;BME280;30240;47.418;0.700;2023-02-08T05:51:14;102122.96752929688;;;-0.14;88.31
44531;BME280;30240;47.418;0.700;2023-02-08T05:53:38;102122.96752929688;;;-0.14;88.31
44531;BME280;30240;47.418;0.700;2023-02-08T05:56:04;102122.34497070312;;;-0.18;88.54
44531;BME280;30240;47.418;0.700;2023-02-08T05:58:29;102122.7783203125;;;-0.18;88.46
44531;BME280;30240;47.418;0.700;2023-02-08T06:00:53;102123.63891601562;;;-0.33;88.65
44531;BME280;30240;47.418;0.700;2023-02-08T06:03:19;102125.75073242188;;;-0.3;89.03
44531;BME280;30240;47.418;0.700;2023-02-08T06:05:44;102125.75073242188;;;-0.3;89.03
44531;BME280;30240;47.418;0.700;2023-02-08T06:08:08;102128.49731445312;;;-0.29;89.09
44531;BME280;30240;47.418;0.700;2023-02-08T06:10:34;102126.45874023438;;;-0.3;88.98
44531;BME280;30240;47.418;0.700;2023-02-08T06:12:59;102125.60424804688;;;-0.35;89.32
44531;BME280;30240;47.418;0.700;2023-02-08T06:15:24;102126.11083984375;;;-0.38;89.23
44531;BME280;30240;47.418;0.700;2023-02-08T06:17:49;102126.11083984375;;;-0.38;89.23
44531;BME280;30240;47.418;0.700;2023-02-08T06:20:13;102125.830078125;;;-0.36;89.21
44531;BME280;30240;47.418;0.700;2023-02-08T06:22:39;102115.76538085938;;;-0.4;89.09
44531;BME280;30240;47.418;0.700;2023-02-08T06:25:04;102115.5029296875;;;-0.39;89.21
44531;BME280;30240;47.418;0.700;2023-02-08T06:27:28;102109.14916992188;;;-0.39;89.09
44531;BME280;30240;47.418;0.700;2023-02-08T06:29:53;102107.55615234375;;;-0.33;89.19
44531;BME280;30240;47.418;0.700;2023-02-08T06:32:19;102107.55615234375;;;-0.33;89.19
44531;BME280;30240;47.418;0.700;2023-02-08T06:34:43;102110.51635742188;;;-0.35;89.08
44531;BME280;30240;47.418;0.700;2023-02-08T06:37:08;102107.30590820312;;;-0.39;88.9
44531;BME280;30240;47.418;0.700;2023-02-08T06:39:33;102109.84497070312;;;-0.42;88.9
44531;BME280;30240;47.418;0.700;2023-02-08T06:41:58;102106.93969726562;;;-0.38;88.98
44531;BME280;30240;47.418;0.700;2023-02-08T06:44:23;102106.93969726562;;;-0.38;88.98
44531;BME280;30240;47.418;0.700;2023-02-08T06:46:49;102112.26806640625;;;-0.33;88.95
44531;BME280;30240;47.418;0.700;2023-02-08T06:49:13;102115.17333984375;;;-0.43;88.87
44531;BME280;30240;47.418;0.700;2023-02-08T06:51:38;102112.548828125;;;-0.39;88.83
44531;BME280;30240;47.418;0.700;2023-02-08T06:54:04;102114.75219726562;;;-0.46;88.84
44531;BME280;30240;47.418;0.700;2023-02-08T06:56:28;102114.75219726562;;;-0.46;88.84
44531;BME280;30240;47.418;0.700;2023-02-08T06:58:54;102108.89282226562;;;-0.48;89.04
44531;BME280;30240;47.418;0.700;2023-02-08T07:01:18;102105.25512695312;;;-0.48;88.94
44531;BME280;30240;47.418;0.700;2023-02-08T07:03:43;102105.6640625;;;-0.52;89.0
44531;BME280;30240;47.418;0.700;2023-02-08T07:06:12;102108.29467773438;;;-0.5;88.81
44531;BME280;30240;47.418;0.700;2023-02-08T07:08:33;102108.29467773438;;;-0.5;88.81
44531;BME280;30240;47.418;0.700;2023-02-08T07:10:58;102102.34375;;;-0.5;88.76
44531;BME280;30240;47.418;0.700;2023-02-08T07:13:23;102110.84594726562;;;-0.48;88.61
44531;BME280;30240;47.418;0.700;2023-02-08T07:15:48;102105.21240234375;;;-0.48;88.69
44531;BME280;30240;47.418;0.700;2023-02-08T07:18:13;102096.12426757812;;;-0.43;88.55
44531;BME280;30240;47.418;0.700;2023-02-08T07:20:38;102096.12426757812;;;-0.43;88.55
44531;BME280;30240;47.418;0.700;2023-02-08T07:23:11;102097.08862304688;;;-0.43;88.12
44531;BME280;30240;47.418;0.700;2023-02-08T07:25:28;102094.89135742188;;;-0.21;87.61
44531;BME280;30240;47.418;0.700;2023-02-08T07:27:53;102088.75122070312;;;-0.12;87.18
44531;BME280;30240;47.418;0.700;2023-02-08T07:30:19;102093.54858398438;;;0.09;86.47
44531;BME280;30240;47.418;0.700;2023-02-08T07:32:43;102093.54858398438;;;0.09;86.47
44531;BME280;30240;47.418;0.700;2023-02-08T07:35:08;102096.923828125;;;0.14;85.75
44531;BME280;30240;47.418;0.700;2023-02-08T07:37:33;102095.08056640625;;;0.38;85.61
44531;BME280;30240;47.418;0.700;2023-02-08T07:39:58;102088.0615234375;;;0.49;84.99
44531;BME280;30240;47.418;0.700;2023-02-08T07:42:24;102087.7685546875;;;0.68;84.26
44531;BME280;30240;47.418;0.700;2023-02-08T07:44:48;102087.7685546875;;;0.68;84.26
44531;BME280;30240;47.418;0.700;2023-02-08T07:47:13;102081.30493164062;;;1.05;82.88
44531;BME280;30240;47.418;0.700;2023-02-08T07:49:38;102078.57666015625;;;1.05;82.55
44531;BME280;30240;47.418;0.700;2023-02-08T07:52:04;102069.1162109375;;;1.09;81.74
44531;BME280;30240;47.418;0.700;2023-02-08T07:54:29;102062.29858398438;;;1.4;81.01
44531;BME280;30240;47.418;0.700;2023-02-08T07:56:54;102060.400390625;;;1.74;80.58
44531;BME280;30240;47.418;0.700;2023-02-08T07:59:19;102060.400390625;;;1.74;80.58
44531;BME280;30240;47.418;0.700;2023-02-08T08:01:44;102063.78173828125;;;1.7;79.82
44531;BME280;30240;47.418;0.700;2023-02-08T08:04:09;102060.70556640625;;;2.37;77.8
44531;BME280;30240;47.418;0.700;2023-02-08T08:06:34;102054.8583984375;;;2.39;77.76
44531;BME280;30240;47.418;0.700;2023-02-08T08:08:59;102043.56079101562;;;2.6;76.55
44531;BME280;30240;47.418;0.700;2023-02-08T08:11:24;102043.56079101562;;;2.6;76.55
44531;BME280;30240;47.418;0.700;2023-02-08T08:13:49;102044.6533203125;;;2.26;77.41
44531;BME280;30240;47.418;0.700;2023-02-08T08:16:14;102055.35888671875;;;2.19;78.04
44531;BME280;30240;47.418;0.700;2023-02-08T08:18:39;102052.6123046875;;;2.6;76.59
44531;BME280;30240;47.418;0.700;2023-02-08T08:21:04;102059.87548828125;;;2.68;75.98
44531;BME280;30240;47.418;0.700;2023-02-08T08:23:29;102059.87548828125;;;2.68;75.98
44531;BME280;30240;47.418;0.700;2023-02-08T08:25:54;102056.7626953125;;;2.74;76.31
44531;BME280;30240;47.418;0.700;2023-02-08T08:28:19;102060.68725585938;;;2.88;76.44
44531;BME280;30240;47.418;0.700;2023-02-08T08:30:44;102061.96899414062;;;2.7;75.97
44531;BME280;30240;47.418;0.700;2023-02-08T08:33:09;102065.90576171875;;;3.19;75.26
44531;BME280;30240;47.418;0.700;2023-02-08T08:35:34;102065.90576171875;;;3.19;75.26
44531;BME280;30240;47.418;0.700;2023-02-08T08:37:59;102068.81103515625;;;3.17;74.38
44531;BME280;30240;47.418;0.700;2023-02-08T08:40:24;102069.921875;;;3.69;73.39
44531;BME280;30240;47.418;0.700;2023-02-08T08:42:49;102069.29931640625;;;3.87;72.13
44531;BME280;30240;47.418;0.700;2023-02-08T08:45:14;102071.62475585938;;;4.04;72.21
44531;BME280;30240;47.418;0.700;2023-02-08T08:47:39;102071.62475585938;;;4.04;72.21
44531;BME280;30240;47.418;0.700;2023-02-08T08:50:05;102071.71020507812;;;4.62;69.93
44531;BME280;30240;47.418;0.700;2023-02-08T08:52:29;102062.40844726562;;;4.31;69.84
44531;BME280;30240;47.418;0.700;2023-02-08T08:54:54;102058.0078125;;;4.51;70.43
44531;BME280;30240;47.418;0.700;2023-02-08T08:57:19;102069.21997070312;;;4.87;69.11
44531;BME280;30240;47.418;0.700;2023-02-08T08:59:44;102069.21997070312;;;4.87;69.11
44531;BME280;30240;47.418;0.700;2023-02-08T09:02:10;102063.78784179688;;;4.38;68.99
44531;BME280;30240;47.418;0.700;2023-02-08T09:04:34;102067.07763671875;;;4.1;70.18
44531;BME280;30240;47.418;0.700;2023-02-08T09:06:59;102064.53247070312;;;5.36;67.61
44531;BME280;30240;47.418;0.700;2023-02-08T09:09:24;102065.3564453125;;;5.19;67.84
44531;BME280;30240;47.418;0.700;2023-02-08T09:11:49;102065.3564453125;;;5.19;67.84
44531;BME280;30240;47.418;0.700;2023-02-08T09:14:14;102054.80346679688;;;4.22;68.33
44531;BME280;30240;47.418;0.700;2023-02-08T09:16:39;102057.56225585938;;;5.05;68.62
44531;BME280;30240;47.418;0.700;2023-02-08T09:19:05;102054.736328125;;;4.68;68.19
44531;BME280;30240;47.418;0.700;2023-02-08T09:21:29;102041.24755859375;;;4.84;68.27
44531;BME280;30240;47.418;0.700;2023-02-08T09:23:54;102041.24755859375;;;4.84;68.27
44531;BME280;30240;47.418;0.700;2023-02-08T09:26:19;102043.2861328125;;;4.4;69.4
44531;BME280;30240;47.418;0.700;2023-02-08T09:28:44;102037.7685546875;;;5.29;67.66
44531;BME280;30240;47.418;0.700;2023-02-08T09:31:10;102033.5693359375;;;5.5;66.59
44531;BME280;30240;47.418;0.700;2023-02-08T09:33:34;102032.31201171875;;;6.05;64.12
44531;BME280;30240;47.418;0.700;2023-02-08T09:35:59;102036.1572265625;;;6.19;64.84
44531;BME280;30240;47.418;0.700;2023-02-08T09:38:24;102036.1572265625;;;6.19;64.84
44531;BME280;30240;47.418;0.700;2023-02-08T09:41:02;102036.70043945312;;;6.46;64.24
44531;BME280;30240;47.418;0.700;2023-02-08T09:41:09;102036.70043945312;;;6.46;64.24
44531;BME280;30240;47.418;0.700;2023-02-08T09:43:17;102029.21752929688;;;6.32;64.41
44531;BME280;30240;47.418;0.700;2023-02-08T09:45:43;102023.35205078125;;;4.87;67.4
44531;BME280;30240;47.418;0.700;2023-02-08T09:48:15;102024.74975585938;;;6.6;63.23
44531;BME280;30240;47.418;0.700;2023-02-08T09:50:31;102024.74975585938;;;6.6;63.23
44531;BME280;30240;47.418;0.700;2023-02-08T09:53:02;102022.68676757812;;;6.4;63.61
44531;BME280;30240;47.418;0.700;2023-02-08T09:55:23;102016.03393554688;;;6.3;63.9
44531;BME280;30240;47.418;0.700;2023-02-08T09:55:28;102016.03393554688;;;6.3;63.9
44531;BME280;30240;47.418;0.700;2023-02-08T09:57:44;102018.84155273438;;;6.97;61.8
44531;BME280;30240;47.418;0.700;2023-02-08T10:00:13;102024.0478515625;;;7.34;61.75
44531;BME280;30240;47.418;0.700;2023-02-08T10:02:34;102024.0478515625;;;7.34;61.75
44531;BME280;30240;47.418;0.700;2023-02-08T10:05:01;102024.7314453125;;;6.99;61.35
44531;BME280;30240;47.418;0.700;2023-02-08T10:07:24;102025.76293945312;;;7.2;61.37
44531;BME280;30240;47.418;0.700;2023-02-08T10:09:49;102028.93676757812;;;6.88;61.44
44531;BME280;30240;47.418;0.700;2023-02-08T10:12:19;102027.4658203125;;;6.26;63.9
44531;BME280;30240;47.418;0.700;2023-02-08T10:12:25;102027.4658203125;;;6.26;63.9
44531;BME280;30240;47.418;0.700;2023-02-08T10:14:50;102027.4658203125;;;6.26;63.9
44531;BME280;30240;47.418;0.700;2023-02-08T10:17:10;102026.611328125;;;7.45;60.77
44531;BME280;30240;47.418;0.700;2023-02-08T10:17:20;102026.611328125;;;7.45;60.77
44531;BME280;30240;47.418;0.700;2023-02-08T10:19:37;102031.97631835938;;;7.26;59.96
44531;BME280;30240;47.418;0.700;2023-02-08T10:22:00;102022.90649414062;;;7.26;59.79
44531;BME280;30240;47.418;0.700;2023-02-08T10:24:35;102019.89135742188;;;7.3;60.58
44531;BME280;30240;47.418;0.700;2023-02-08T10:26:45;102019.89135742188;;;7.3;60.58
44531;BME280;30240;47.418;0.700;2023-02-08T10:29:31;102025.36010742188;;;7.96;57.79
44531;BME280;30240;47.418;0.700;2023-02-08T10:31:41;102016.24755859375;;;7.4;59.33
44531;BME280;30240;47.418;0.700;2023-02-08T10:34:01;102014.14184570312;;;7.24;59.91
44531;BME280;30240;47.418;0.700;2023-02-08T10:36:26;102008.8134765625;;;7.78;58.76
44531;BME280;30240;47.418;0.700;2023-02-08T10:38:51;102008.8134765625;;;7.78;58.76
44531;BME280;30240;47.418;0.700;2023-02-08T10:41:16;102010.97412109375;;;8.38;58.48
44531;BME280;30240;47.418;0.700;2023-02-08T10:43:42;102012.75024414062;;;8.21;57.73
44531;BME280;30240;47.418;0.700;2023-02-08T10:46:09;102012.6708984375;;;8.04;58.23
44531;BME280;30240;47.418;0.700;2023-02-08T10:48:36;102010.43701171875;;;8.45;57.4
44531;BME280;30240;47.418;0.700;2023-02-08T10:48:43;102010.43701171875;;;8.45;57.4
44531;BME280;30240;47.418;0.700;2023-02-08T10:50:54;102010.43701171875;;;8.45;57.4
44531;BME280;30240;47.418;0.700;2023-02-08T10:53:19;102001.56860351562;;;8.04;57.29